sensor_id;sensor_type;location;lat;lon;timestamp;P1;durP1;ratioP1;P2;durP2;ratioP2
19733;SDS011;10018;51.230;7.860;2023-02-28T00:00:49;54.93;;;18.77;;
19733;SDS011;10018;51.230;7.860;2023-02-28T00:03:15;41.87;;;15.13;;
19733;SDS011;10018;51.230;7.860;2023-02-28T00:05:41;20.93;;;8.60;;
19733;SDS011;10018;51.230;7.860;2023-02-28T00:08:07;18.80;;;7.40;;
19733;SDS011;10018;51.230;7.860;2023-02-28T00:10:33;29.03;;;13.20;;
19733;SDS011;10018;51.230;7.860;2023-02-28T00:13:02;36.00;;;16.10;;
19733;SDS011;10018;51.230;7.860;2023-02-28T00:15:30;22.10;;;8.13;;
19733;SDS011;10018;51.230;7.860;2023-02-28T00:17:56;21.27;;;9.17;;
19733;SDS011;10018;51.230;7.860;2023-02-28T00:20:21;30.60;;;13.47;;
19733;SDS011;10018;51.230;7.860;2023-02-28T00:22:48;22.47;;;9.93;;
19733;SDS011;10018;51.230;7.860;2023-02-28T00:25:17;21.10;;;8.87;;
19733;SDS011;10018;51.230;7.860;2023-02-28T00:27:45;19.00;;;8.30;;
19733;SDS011;10018;51.230;7.860;2023-02-28T00:30:15;13.37;;;5.83;;
19733;SDS011;10018;51.230;7.860;2023-02-28T00:32:45;20.10;;;8.23;;
19733;SDS011;10018;51.230;7.860;2023-02-28T00:35:11;24.93;;;10.27;;
19733;SDS011;10018;51.230;7.860;2023-02-28T00:37:37;40.10;;;14.83;;
19733;SDS011;10018;51.230;7.860;2023-02-28T00:40:05;35.17;;;13.57;;
19733;SDS011;10018;51.230;7.860;2023-02-28T00:42:32;30.03;;;11.77;;
19733;SDS011;10018;51.230;7.860;2023-02-28T00:44:59;28.97;;;11.33;;
19733;SDS011;10018;51.230;7.860;2023-02-28T00:47:25;26.13;;;10.83;;
19733;SDS011;10018;51.230;7.860;2023-02-28T00:49:51;26.07;;;10.50;;
19733;SDS011;10018;51.230;7.860;2023-02-28T00:52:17;20.23;;;8.67;;
19733;SDS011;10018;51.230;7.860;2023-02-28T00:54:42;37.67;;;14.37;;
19733;SDS011;10018;51.230;7.860;2023-02-28T00:57:08;20.33;;;8.43;;
19733;SDS011;10018;51.230;7.860;2023-02-28T00:59:33;24.83;;;9.53;;
19733;SDS011;10018;51.230;7.860;2023-02-28T01:01:59;24.10;;;10.60;;
19733;SDS011;10018;51.230;7.860;2023-02-28T01:04:25;44.30;;;16.80;;
19733;SDS011;10018;51.230;7.860;2023-02-28T01:06:50;31.53;;;12.07;;
19733;SDS011;10018;51.230;7.860;2023-02-28T01:09:16;28.13;;;11.57;;
19733;SDS011;10018;51.230;7.860;2023-02-28T01:11:42;22.67;;;8.90;;
19733;SDS011;10018;51.230;7.860;2023-02-28T01:14:12;13.63;;;6.33;;
19733;SDS011;10018;51.230;7.860;2023-02-28T01:16:39;11.80;;;5.93;;
19733;SDS011;10018;51.230;7.860;2023-02-28T01:19:04;17.30;;;7.53;;
19733;SDS011;10018;51.230;7.860;2023-02-28T01:21:30;47.87;;;14.50;;
19733;SDS011;10018;51.230;7.860;2023-02-28T01:23:59;19.20;;;8.83;;
19733;SDS011;10018;51.230;7.860;2023-02-28T01:26:25;18.43;;;6.97;;
19733;SDS011;10018;51.230;7.860;2023-02-28T01:28:51;15.70;;;6.90;;
19733;SDS011;10018;51.230;7.860;2023-02-28T01:31:18;13.87;;;6.40;;
19733;SDS011;10018;51.230;7.860;2023-02-28T01:33:44;12.20;;;6.20;;
19733;SDS011;10018;51.230;7.860;2023-02-28T01:36:20;12.90;;;5.70;;
19733;SDS011;10018;51.230;7.860;2023-02-28T01:38:47;15.10;;;6.80;;
19733;SDS011;10018;51.230;7.860;2023-02-28T01:41:25;13.73;;;6.80;;
19733;SDS011;10018;51.230;7.860;2023-02-28T01:43:57;15.97;;;8.13;;
19733;SDS011;10018;51.230;7.860;2023-02-28T01:46:28;19.00;;;9.53;;
19733;SDS011;10018;51.230;7.860;2023-02-28T01:49:02;20.00;;;9.50;;
19733;SDS011;10018;51.230;7.860;2023-02-28T01:54:16;19.53;;;9.80;;
19733;SDS011;10018;51.230;7.860;2023-02-28T01:56:47;17.87;;;8.37;;
19733;SDS011;10018;51.230;7.860;2023-02-28T01:59:21;15.87;;;8.30;;
19733;SDS011;10018;51.230;7.860;2023-02-28T02:01:52;12.63;;;7.00;;
19733;SDS011;10018;51.230;7.860;2023-02-28T02:04:18;14.37;;;6.53;;
19733;SDS011;10018;51.230;7.860;2023-02-28T02:06:46;14.60;;;5.80;;
19733;SDS011;10018;51.230;7.860;2023-02-28T02:09:13;13.40;;;6.37;;
19733;SDS011;10018;51.230;7.860;2023-02-28T02:11:39;11.70;;;5.73;;
19733;SDS011;10018;51.230;7.860;2023-02-28T02:30:54;12.00;;;6.00;;
19733;SDS011;10018;51.230;7.860;2023-02-28T02:36:30;11.50;;;6.00;;
19733;SDS011;10018;51.230;7.860;2023-02-28T02:39:10;11.17;;;5.43;;
19733;SDS011;10018;51.230;7.860;2023-02-28T02:41:46;13.40;;;6.13;;
19733;SDS011;10018;51.230;7.860;2023-02-28T02:44:15;11.00;;;5.87;;
19733;SDS011;10018;51.230;7.860;2023-02-28T02:46:47;10.73;;;6.07;;
19733;SDS011;10018;51.230;7.860;2023-02-28T02:49:22;12.87;;;5.83;;
19733;SDS011;10018;51.230;7.860;2023-02-28T02:51:53;12.23;;;5.93;;
19733;SDS011;10018;51.230;7.860;2023-02-28T02:54:25;11.40;;;6.07;;
19733;SDS011;10018;51.230;7.860;2023-02-28T02:56:54;12.10;;;5.40;;
19733;SDS011;10018;51.230;7.860;2023-02-28T02:59:24;10.90;;;5.77;;
19733;SDS011;10018;51.230;7.860;2023-02-28T03:01:55;10.93;;;5.13;;
19733;SDS011;10018;51.230;7.860;2023-02-28T03:04:27;10.50;;;5.57;;
19733;SDS011;10018;51.230;7.860;2023-02-28T03:06:59;12.13;;;6.07;;
19733;SDS011;10018;51.230;7.860;2023-02-28T03:09:25;10.97;;;5.87;;
19733;SDS011;10018;51.230;7.860;2023-02-28T03:11:52;13.47;;;6.47;;
19733;SDS011;10018;51.230;7.860;2023-02-28T03:24:56;14.10;;;6.03;;
19733;SDS011;10018;51.230;7.860;2023-02-28T03:30:15;14.73;;;6.63;;
19733;SDS011;10018;51.230;7.860;2023-02-28T03:37:46;14.57;;;6.93;;
19733;SDS011;10018;51.230;7.860;2023-02-28T03:40:16;12.00;;;6.20;;
19733;SDS011;10018;51.230;7.860;2023-02-28T03:42:47;13.20;;;6.50;;
19733;SDS011;10018;51.230;7.860;2023-02-28T03:45:17;12.83;;;6.33;;
19733;SDS011;10018;51.230;7.860;2023-02-28T03:47:47;14.00;;;6.40;;
19733;SDS011;10018;51.230;7.860;2023-02-28T03:50:29;14.63;;;6.50;;
19733;SDS011;10018;51.230;7.860;2023-02-28T03:53:06;15.00;;;6.77;;
19733;SDS011;10018;51.230;7.860;2023-02-28T03:56:22;13.77;;;6.60;;
19733;SDS011;10018;51.230;7.860;2023-02-28T03:58:57;14.23;;;6.33;;
19733;SDS011;10018;51.230;7.860;2023-02-28T04:01:32;16.00;;;6.67;;
19733;SDS011;10018;51.230;7.860;2023-02-28T04:04:02;15.97;;;6.73;;
19733;SDS011;10018;51.230;7.860;2023-02-28T04:06:31;16.97;;;6.97;;
19733;SDS011;10018;51.230;7.860;2023-02-28T04:08:58;16.80;;;6.33;;
19733;SDS011;10018;51.230;7.860;2023-02-28T04:11:31;16.17;;;6.43;;
19733;SDS011;10018;51.230;7.860;2023-02-28T04:14:01;11.97;;;5.67;;
19733;SDS011;10018;51.230;7.860;2023-02-28T04:16:30;15.10;;;6.27;;
19733;SDS011;10018;51.230;7.860;2023-02-28T04:18:57;13.03;;;5.67;;
19733;SDS011;10018;51.230;7.860;2023-02-28T04:21:28;10.53;;;5.27;;
19733;SDS011;10018;51.230;7.860;2023-02-28T04:23:55;11.67;;;5.33;;
19733;SDS011;10018;51.230;7.860;2023-02-28T04:26:20;12.67;;;5.70;;
19733;SDS011;10018;51.230;7.860;2023-02-28T04:28:46;9.57;;;5.17;;
19733;SDS011;10018;51.230;7.860;2023-02-28T04:31:12;10.90;;;5.30;;
19733;SDS011;10018;51.230;7.860;2023-02-28T04:33:37;10.27;;;5.30;;
19733;SDS011;10018;51.230;7.860;2023-02-28T04:36:07;11.70;;;5.60;;
19733;SDS011;10018;51.230;7.860;2023-02-28T04:38:34;12.57;;;5.23;;
19733;SDS011;10018;51.230;7.860;2023-02-28T04:41:01;12.97;;;5.80;;
19733;SDS011;10018;51.230;7.860;2023-02-28T04:43:27;14.70;;;6.10;;
19733;SDS011;10018;51.230;7.860;2023-02-28T04:45:54;12.53;;;6.33;;
19733;SDS011;10018;51.230;7.860;2023-02-28T04:48:23;15.73;;;7.73;;
19733;SDS011;10018;51.230;7.860;2023-02-28T04:50:50;14.03;;;7.23;;
19733;SDS011;10018;51.230;7.860;2023-02-28T04:53:16;16.00;;;7.00;;
19733;SDS011;10018;51.230;7.860;2023-02-28T04:55:42;12.40;;;7.10;;
19733;SDS011;10018;51.230;7.860;2023-02-28T04:58:08;13.97;;;7.57;;
19733;SDS011;10018;51.230;7.860;2023-02-28T05:00:34;12.83;;;7.20;;
19733;SDS011;10018;51.230;7.860;2023-02-28T05:02:59;11.73;;;7.20;;
19733;SDS011;10018;51.230;7.860;2023-02-28T05:05:25;13.80;;;7.50;;
19733;SDS011;10018;51.230;7.860;2023-02-28T05:07:50;14.50;;;7.13;;
19733;SDS011;10018;51.230;7.860;2023-02-28T05:10:16;13.83;;;7.40;;
19733;SDS011;10018;51.230;7.860;2023-02-28T05:12:44;12.27;;;6.80;;
19733;SDS011;10018;51.230;7.860;2023-02-28T05:15:13;12.43;;;7.10;;
19733;SDS011;10018;51.230;7.860;2023-02-28T05:17:40;15.07;;;7.93;;
19733;SDS011;10018;51.230;7.860;2023-02-28T05:20:06;11.73;;;6.70;;
19733;SDS011;10018;51.230;7.860;2023-02-28T05:22:35;13.50;;;7.17;;
19733;SDS011;10018;51.230;7.860;2023-02-28T05:25:01;19.47;;;8.93;;
19733;SDS011;10018;51.230;7.860;2023-02-28T05:27:29;13.07;;;6.97;;
19733;SDS011;10018;51.230;7.860;2023-02-28T05:29:55;21.43;;;10.87;;
19733;SDS011;10018;51.230;7.860;2023-02-28T05:32:21;12.47;;;7.50;;
19733;SDS011;10018;51.230;7.860;2023-02-28T05:34:46;14.77;;;7.27;;
19733;SDS011;10018;51.230;7.860;2023-02-28T05:37:12;14.63;;;7.30;;
19733;SDS011;10018;51.230;7.860;2023-02-28T05:39:39;24.67;;;14.47;;
19733;SDS011;10018;51.230;7.860;2023-02-28T05:42:04;22.53;;;12.13;;
19733;SDS011;10018;51.230;7.860;2023-02-28T05:44:30;24.37;;;14.13;;
19733;SDS011;10018;51.230;7.860;2023-02-28T05:46:58;24.57;;;15.07;;
19733;SDS011;10018;51.230;7.860;2023-02-28T05:49:23;28.23;;;15.13;;
19733;SDS011;10018;51.230;7.860;2023-02-28T05:51:49;71.17;;;41.63;;
19733;SDS011;10018;51.230;7.860;2023-02-28T05:54:15;58.70;;;28.93;;
19733;SDS011;10018;51.230;7.860;2023-02-28T05:56:40;41.93;;;19.13;;
19733;SDS011;10018;51.230;7.860;2023-02-28T05:59:08;57.63;;;30.20;;
19733;SDS011;10018;51.230;7.860;2023-02-28T06:01:39;51.67;;;28.40;;
19733;SDS011;10018;51.230;7.860;2023-02-28T06:04:19;48.00;;;23.10;;
19733;SDS011;10018;51.230;7.860;2023-02-28T06:06:49;34.80;;;19.07;;
19733;SDS011;10018;51.230;7.860;2023-02-28T06:09:17;109.00;;;69.63;;
19733;SDS011;10018;51.230;7.860;2023-02-28T06:11:45;75.63;;;45.83;;
19733;SDS011;10018;51.230;7.860;2023-02-28T06:14:17;70.97;;;42.23;;
19733;SDS011;10018;51.230;7.860;2023-02-28T06:16:44;79.63;;;49.60;;
19733;SDS011;10018;51.230;7.860;2023-02-28T06:19:10;52.67;;;32.10;;
19733;SDS011;10018;51.230;7.860;2023-02-28T06:21:36;43.87;;;27.03;;
19733;SDS011;10018;51.230;7.860;2023-02-28T06:24:02;74.30;;;44.90;;
19733;SDS011;10018;51.230;7.860;2023-02-28T06:26:28;67.90;;;40.70;;
19733;SDS011;10018;51.230;7.860;2023-02-28T06:28:54;59.80;;;32.67;;
19733;SDS011;10018;51.230;7.860;2023-02-28T06:31:22;45.23;;;23.63;;
19733;SDS011;10018;51.230;7.860;2023-02-28T06:33:49;42.83;;;24.20;;
19733;SDS011;10018;51.230;7.860;2023-02-28T06:36:15;40.30;;;21.57;;
19733;SDS011;10018;51.230;7.860;2023-02-28T06:38:41;47.87;;;22.20;;
19733;SDS011;10018;51.230;7.860;2023-02-28T06:41:07;35.40;;;19.27;;
19733;SDS011;10018;51.230;7.860;2023-02-28T06:43:35;90.87;;;51.30;;
19733;SDS011;10018;51.230;7.860;2023-02-28T06:46:03;38.77;;;22.23;;
19733;SDS011;10018;51.230;7.860;2023-02-28T06:48:30;30.63;;;17.07;;
19733;SDS011;10018;51.230;7.860;2023-02-28T06:51:06;35.17;;;19.17;;
19733;SDS011;10018;51.230;7.860;2023-02-28T06:53:35;64.33;;;27.43;;
19733;SDS011;10018;51.230;7.860;2023-02-28T06:56:09;48.83;;;22.10;;
19733;SDS011;10018;51.230;7.860;2023-02-28T06:58:37;41.53;;;17.53;;
19733;SDS011;10018;51.230;7.860;2023-02-28T07:01:05;50.73;;;22.33;;
19733;SDS011;10018;51.230;7.860;2023-02-28T07:03:32;115.37;;;40.20;;
19733;SDS011;10018;51.230;7.860;2023-02-28T07:05:57;40.33;;;18.17;;
19733;SDS011;10018;51.230;7.860;2023-02-28T07:08:23;156.97;;;51.20;;
19733;SDS011;10018;51.230;7.860;2023-02-28T07:10:53;167.07;;;57.80;;
19733;SDS011;10018;51.230;7.860;2023-02-28T07:13:19;203.90;;;70.57;;
19733;SDS011;10018;51.230;7.860;2023-02-28T07:15:52;141.20;;;54.07;;
19733;SDS011;10018;51.230;7.860;2023-02-28T07:18:28;103.23;;;40.87;;
19733;SDS011;10018;51.230;7.860;2023-02-28T07:20:54;97.60;;;38.03;;
19733;SDS011;10018;51.230;7.860;2023-02-28T07:23:22;285.30;;;91.30;;
19733;SDS011;10018;51.230;7.860;2023-02-28T07:25:49;88.97;;;37.77;;
19733;SDS011;10018;51.230;7.860;2023-02-28T07:28:15;88.77;;;34.63;;
19733;SDS011;10018;51.230;7.860;2023-02-28T07:30:41;203.50;;;66.57;;
19733;SDS011;10018;51.230;7.860;2023-02-28T07:33:06;379.47;;;119.93;;
19733;SDS011;10018;51.230;7.860;2023-02-28T07:35:32;232.33;;;78.83;;
19733;SDS011;10018;51.230;7.860;2023-02-28T07:37:58;100.13;;;39.87;;
19733;SDS011;10018;51.230;7.860;2023-02-28T07:40:24;76.43;;;31.47;;
19733;SDS011;10018;51.230;7.860;2023-02-28T07:42:50;311.00;;;100.57;;
19733;SDS011;10018;51.230;7.860;2023-02-28T07:45:16;105.93;;;41.27;;
19733;SDS011;10018;51.230;7.860;2023-02-28T07:47:44;90.13;;;41.97;;
19733;SDS011;10018;51.230;7.860;2023-02-28T07:50:11;87.00;;;40.00;;
19733;SDS011;10018;51.230;7.860;2023-02-28T07:52:39;56.83;;;27.67;;
19733;SDS011;10018;51.230;7.860;2023-02-28T07:55:05;75.30;;;42.90;;
19733;SDS011;10018;51.230;7.860;2023-02-28T07:57:32;53.00;;;30.20;;
19733;SDS011;10018;51.230;7.860;2023-02-28T08:00:00;40.40;;;21.07;;
19733;SDS011;10018;51.230;7.860;2023-02-28T08:02:28;34.83;;;20.27;;
19733;SDS011;10018;51.230;7.860;2023-02-28T08:04:56;33.50;;;18.63;;
19733;SDS011;10018;51.230;7.860;2023-02-28T08:07:21;42.03;;;25.03;;
19733;SDS011;10018;51.230;7.860;2023-02-28T08:09:47;36.53;;;18.57;;
19733;SDS011;10018;51.230;7.860;2023-02-28T08:12:13;22.07;;;13.20;;
19733;SDS011;10018;51.230;7.860;2023-02-28T08:14:39;27.27;;;14.43;;
19733;SDS011;10018;51.230;7.860;2023-02-28T08:17:04;26.27;;;15.40;;
19733;SDS011;10018;51.230;7.860;2023-02-28T08:19:30;32.83;;;19.53;;
19733;SDS011;10018;51.230;7.860;2023-02-28T08:21:56;20.60;;;11.97;;
19733;SDS011;10018;51.230;7.860;2023-02-28T08:24:24;23.27;;;13.77;;
19733;SDS011;10018;51.230;7.860;2023-02-28T08:26:50;36.20;;;20.97;;
19733;SDS011;10018;51.230;7.860;2023-02-28T08:29:16;28.47;;;16.13;;
19733;SDS011;10018;51.230;7.860;2023-02-28T08:31:42;18.30;;;10.77;;
19733;SDS011;10018;51.230;7.860;2023-02-28T08:34:08;16.47;;;7.83;;
19733;SDS011;10018;51.230;7.860;2023-02-28T08:36:36;25.43;;;12.03;;
19733;SDS011;10018;51.230;7.860;2023-02-28T08:39:03;73.93;;;24.70;;
19733;SDS011;10018;51.230;7.860;2023-02-28T08:41:28;16.37;;;8.37;;
19733;SDS011;10018;51.230;7.860;2023-02-28T08:43:56;14.60;;;5.57;;
19733;SDS011;10018;51.230;7.860;2023-02-28T08:46:22;9.03;;;5.00;;
19733;SDS011;10018;51.230;7.860;2023-02-28T08:48:51;10.63;;;6.10;;
19733;SDS011;10018;51.230;7.860;2023-02-28T08:51:19;7.80;;;3.87;;
19733;SDS011;10018;51.230;7.860;2023-02-28T08:53:51;5.67;;;3.37;;
19733;SDS011;10018;51.230;7.860;2023-02-28T08:56:18;6.77;;;3.13;;
19733;SDS011;10018;51.230;7.860;2023-02-28T08:58:45;9.03;;;3.37;;
19733;SDS011;10018;51.230;7.860;2023-02-28T09:01:18;6.93;;;2.83;;
19733;SDS011;10018;51.230;7.860;2023-02-28T09:03:46;5.43;;;2.77;;
19733;SDS011;10018;51.230;7.860;2023-02-28T09:06:13;7.23;;;3.93;;
19733;SDS011;10018;51.230;7.860;2023-02-28T09:08:39;7.00;;;3.80;;
19733;SDS011;10018;51.230;7.860;2023-02-28T09:11:05;6.23;;;3.53;;
19733;SDS011;10018;51.230;7.860;2023-02-28T09:13:31;5.63;;;2.93;;
19733;SDS011;10018;51.230;7.860;2023-02-28T09:15:58;5.10;;;2.43;;
19733;SDS011;10018;51.230;7.860;2023-02-28T09:18:25;8.93;;;2.80;;
19733;SDS011;10018;51.230;7.860;2023-02-28T09:20:52;8.90;;;5.37;;
19733;SDS011;10018;51.230;7.860;2023-02-28T09:23:17;4.97;;;2.40;;
19733;SDS011;10018;51.230;7.860;2023-02-28T09:25:47;24.30;;;16.77;;
19733;SDS011;10018;51.230;7.860;2023-02-28T09:28:14;43.30;;;27.13;;
19733;SDS011;10018;51.230;7.860;2023-02-28T09:30:41;6.23;;;3.17;;
19733;SDS011;10018;51.230;7.860;2023-02-28T09:33:09;4.87;;;3.10;;
19733;SDS011;10018;51.230;7.860;2023-02-28T09:35:35;5.27;;;2.63;;
19733;SDS011;10018;51.230;7.860;2023-02-28T09:38:02;7.50;;;3.20;;
19733;SDS011;10018;51.230;7.860;2023-02-28T09:40:28;7.93;;;2.60;;
19733;SDS011;10018;51.230;7.860;2023-02-28T09:42:55;6.53;;;3.70;;
19733;SDS011;10018;51.230;7.860;2023-02-28T09:45:30;5.37;;;3.10;;
19733;SDS011;10018;51.230;7.860;2023-02-28T09:48:03;5.27;;;2.67;;
19733;SDS011;10018;51.230;7.860;2023-02-28T09:50:37;11.63;;;6.30;;
19733;SDS011;10018;51.230;7.860;2023-02-28T09:53:28;5.40;;;2.40;;
19733;SDS011;10018;51.230;7.860;2023-02-28T09:55:59;5.03;;;2.60;;
19733;SDS011;10018;51.230;7.860;2023-02-28T09:58:47;9.17;;;4.73;;
19733;SDS011;10018;51.230;7.860;2023-02-28T10:06:39;4.70;;;2.93;;
19733;SDS011;10018;51.230;7.860;2023-02-28T10:09:11;5.60;;;3.00;;
19733;SDS011;10018;51.230;7.860;2023-02-28T10:11:42;4.63;;;2.60;;
19733;SDS011;10018;51.230;7.860;2023-02-28T10:14:13;7.00;;;2.83;;
19733;SDS011;10018;51.230;7.860;2023-02-28T10:16:52;6.40;;;2.90;;
19733;SDS011;10018;51.230;7.860;2023-02-28T10:22:18;4.87;;;2.77;;
19733;SDS011;10018;51.230;7.860;2023-02-28T10:24:52;6.33;;;2.90;;
19733;SDS011;10018;51.230;7.860;2023-02-28T10:27:22;4.87;;;2.60;;
19733;SDS011;10018;51.230;7.860;2023-02-28T10:29:55;5.10;;;3.03;;
19733;SDS011;10018;51.230;7.860;2023-02-28T10:32:23;7.77;;;4.10;;
19733;SDS011;10018;51.230;7.860;2023-02-28T10:37:37;7.90;;;3.27;;
19733;SDS011;10018;51.230;7.860;2023-02-28T10:40:06;4.97;;;2.80;;
19733;SDS011;10018;51.230;7.860;2023-02-28T10:42:56;4.73;;;2.40;;
19733;SDS011;10018;51.230;7.860;2023-02-28T10:45:23;4.30;;;2.47;;
19733;SDS011;10018;51.230;7.860;2023-02-28T10:50:33;5.13;;;3.20;;
19733;SDS011;10018;51.230;7.860;2023-02-28T10:55:59;4.10;;;2.50;;
19733;SDS011;10018;51.230;7.860;2023-02-28T10:58:48;5.80;;;2.53;;
19733;SDS011;10018;51.230;7.860;2023-02-28T11:01:34;4.70;;;3.10;;
19733;SDS011;10018;51.230;7.860;2023-02-28T11:09:52;6.27;;;3.50;;
19733;SDS011;10018;51.230;7.860;2023-02-28T11:12:21;6.93;;;3.40;;
19733;SDS011;10018;51.230;7.860;2023-02-28T11:14:59;7.03;;;3.20;;
19733;SDS011;10018;51.230;7.860;2023-02-28T11:17:30;4.97;;;2.87;;
19733;SDS011;10018;51.230;7.860;2023-02-28T11:19:58;6.43;;;3.10;;
19733;SDS011;10018;51.230;7.860;2023-02-28T11:22:33;6.63;;;2.93;;
19733;SDS011;10018;51.230;7.860;2023-02-28T11:25:09;5.03;;;3.00;;
19733;SDS011;10018;51.230;7.860;2023-02-28T11:27:48;6.63;;;3.10;;
19733;SDS011;10018;51.230;7.860;2023-02-28T11:30:26;4.47;;;3.00;;
19733;SDS011;10018;51.230;7.860;2023-02-28T11:35:48;5.63;;;3.40;;
19733;SDS011;10018;51.230;7.860;2023-02-28T11:38:14;5.77;;;3.07;;
19733;SDS011;10018;51.230;7.860;2023-02-28T11:40:47;6.83;;;3.40;;
19733;SDS011;10018;51.230;7.860;2023-02-28T11:46:17;6.40;;;3.53;;
19733;SDS011;10018;51.230;7.860;2023-02-28T11:49:30;5.80;;;3.20;;
19733;SDS011;10018;51.230;7.860;2023-02-28T11:57:09;7.07;;;3.07;;
19733;SDS011;10018;51.230;7.860;2023-02-28T12:05:22;5.90;;;3.37;;
19733;SDS011;10018;51.230;7.860;2023-02-28T12:14:18;8.40;;;3.30;;
19733;SDS011;10018;51.230;7.860;2023-02-28T12:17:20;6.93;;;3.40;;
19733;SDS011;10018;51.230;7.860;2023-02-28T12:27:57;8.63;;;3.90;;
19733;SDS011;10018;51.230;7.860;2023-02-28T12:30:26;6.07;;;3.87;;
19733;SDS011;10018;51.230;7.860;2023-02-28T12:32:56;5.60;;;3.20;;
19733;SDS011;10018;51.230;7.860;2023-02-28T12:35:37;5.77;;;3.70;;
19733;SDS011;10018;51.230;7.860;2023-02-28T12:41:13;6.40;;;3.47;;
19733;SDS011;10018;51.230;7.860;2023-02-28T12:43:46;6.27;;;3.50;;
19733;SDS011;10018;51.230;7.860;2023-02-28T12:46:38;5.97;;;3.70;;
19733;SDS011;10018;51.230;7.860;2023-02-28T12:49:09;7.23;;;4.43;;
19733;SDS011;10018;51.230;7.860;2023-02-28T12:51:40;7.73;;;3.77;;
19733;SDS011;10018;51.230;7.860;2023-02-28T12:54:15;7.67;;;3.57;;
19733;SDS011;10018;51.230;7.860;2023-02-28T12:59:53;5.30;;;3.60;;
19733;SDS011;10018;51.230;7.860;2023-02-28T13:08:07;6.77;;;3.40;;
19733;SDS011;10018;51.230;7.860;2023-02-28T13:10:52;5.30;;;3.17;;
19733;SDS011;10018;51.230;7.860;2023-02-28T13:13:22;6.80;;;3.67;;
19733;SDS011;10018;51.230;7.860;2023-02-28T13:18:39;5.83;;;3.40;;
19733;SDS011;10018;51.230;7.860;2023-02-28T13:21:24;5.47;;;3.20;;
19733;SDS011;10018;51.230;7.860;2023-02-28T13:28:58;6.93;;;4.20;;
19733;SDS011;10018;51.230;7.860;2023-02-28T13:31:26;11.40;;;6.27;;
19733;SDS011;10018;51.230;7.860;2023-02-28T13:36:28;8.53;;;4.47;;
19733;SDS011;10018;51.230;7.860;2023-02-28T13:39:02;11.30;;;6.23;;
19733;SDS011;10018;51.230;7.860;2023-02-28T13:41:47;5.60;;;3.40;;
19733;SDS011;10018;51.230;7.860;2023-02-28T13:44:14;8.73;;;5.30;;
19733;SDS011;10018;51.230;7.860;2023-02-28T13:49:32;6.60;;;3.40;;
19733;SDS011;10018;51.230;7.860;2023-02-28T13:58:00;5.23;;;3.63;;
19733;SDS011;10018;51.230;7.860;2023-02-28T14:06:07;12.37;;;4.37;;
19733;SDS011;10018;51.230;7.860;2023-02-28T14:11:37;6.60;;;3.97;;
19733;SDS011;10018;51.230;7.860;2023-02-28T14:14:05;6.20;;;3.10;;
19733;SDS011;10018;51.230;7.860;2023-02-28T14:19:15;5.17;;;3.10;;
19733;SDS011;10018;51.230;7.860;2023-02-28T14:22:13;4.23;;;3.30;;
19733;SDS011;10018;51.230;7.860;2023-02-28T14:25:10;4.67;;;3.10;;
19733;SDS011;10018;51.230;7.860;2023-02-28T14:36:23;5.27;;;3.80;;
19733;SDS011;10018;51.230;7.860;2023-02-28T14:38:57;6.33;;;3.80;;
19733;SDS011;10018;51.230;7.860;2023-02-28T14:41:31;5.33;;;3.63;;
19733;SDS011;10018;51.230;7.860;2023-02-28T14:44:12;6.70;;;3.40;;
19733;SDS011;10018;51.230;7.860;2023-02-28T14:46:43;5.33;;;3.30;;
19733;SDS011;10018;51.230;7.860;2023-02-28T14:49:12;6.23;;;3.40;;
19733;SDS011;10018;51.230;7.860;2023-02-28T14:51:44;5.57;;;3.67;;
19733;SDS011;10018;51.230;7.860;2023-02-28T14:54:13;5.60;;;3.27;;
19733;SDS011;10018;51.230;7.860;2023-02-28T14:56:44;5.10;;;3.50;;
19733;SDS011;10018;51.230;7.860;2023-02-28T14:59:25;5.00;;;3.27;;
19733;SDS011;10018;51.230;7.860;2023-02-28T15:01:51;6.83;;;4.00;;
19733;SDS011;10018;51.230;7.860;2023-02-28T15:04:26;4.97;;;3.43;;
19733;SDS011;10018;51.230;7.860;2023-02-28T15:07:12;7.07;;;3.70;;
19733;SDS011;10018;51.230;7.860;2023-02-28T15:09:39;6.77;;;3.77;;
19733;SDS011;10018;51.230;7.860;2023-02-28T15:12:05;5.63;;;3.70;;
19733;SDS011;10018;51.230;7.860;2023-02-28T15:14:31;6.27;;;3.47;;
19733;SDS011;10018;51.230;7.860;2023-02-28T15:17:03;5.70;;;3.50;;
19733;SDS011;10018;51.230;7.860;2023-02-28T15:19:34;6.13;;;3.90;;
19733;SDS011;10018;51.230;7.860;2023-02-28T15:22:03;6.23;;;3.37;;
19733;SDS011;10018;51.230;7.860;2023-02-28T15:24:36;5.40;;;3.40;;
19733;SDS011;10018;51.230;7.860;2023-02-28T15:27:29;5.77;;;3.83;;
19733;SDS011;10018;51.230;7.860;2023-02-28T15:29:57;5.83;;;4.30;;
19733;SDS011;10018;51.230;7.860;2023-02-28T15:34:59;7.00;;;4.47;;
19733;SDS011;10018;51.230;7.860;2023-02-28T15:37:53;9.03;;;4.40;;
19733;SDS011;10018;51.230;7.860;2023-02-28T15:45:38;6.30;;;4.30;;
19733;SDS011;10018;51.230;7.860;2023-02-28T15:48:13;6.60;;;4.53;;
19733;SDS011;10018;51.230;7.860;2023-02-28T15:50:49;8.40;;;4.43;;
19733;SDS011;10018;51.230;7.860;2023-02-28T15:53:28;8.50;;;4.50;;
19733;SDS011;10018;51.230;7.860;2023-02-28T15:55:58;6.67;;;4.33;;
19733;SDS011;10018;51.230;7.860;2023-02-28T15:58:29;6.53;;;4.50;;
19733;SDS011;10018;51.230;7.860;2023-02-28T16:01:06;7.27;;;4.83;;
19733;SDS011;10018;51.230;7.860;2023-02-28T16:03:43;8.83;;;5.33;;
19733;SDS011;10018;51.230;7.860;2023-02-28T16:06:30;7.73;;;5.30;;
19733;SDS011;10018;51.230;7.860;2023-02-28T16:08:59;7.40;;;5.13;;
19733;SDS011;10018;51.230;7.860;2023-02-28T16:11:24;8.33;;;5.30;;
19733;SDS011;10018;51.230;7.860;2023-02-28T16:13:50;11.17;;;5.70;;
19733;SDS011;10018;51.230;7.860;2023-02-28T16:16:18;10.27;;;6.57;;
19733;SDS011;10018;51.230;7.860;2023-02-28T16:18:45;13.93;;;8.50;;
19733;SDS011;10018;51.230;7.860;2023-02-28T16:21:11;10.30;;;5.33;;
19733;SDS011;10018;51.230;7.860;2023-02-28T16:23:37;25.37;;;16.70;;
19733;SDS011;10018;51.230;7.860;2023-02-28T16:26:03;8.13;;;5.47;;
19733;SDS011;10018;51.230;7.860;2023-02-28T16:28:31;10.27;;;6.23;;
19733;SDS011;10018;51.230;7.860;2023-02-28T16:31:02;11.23;;;6.27;;
19733;SDS011;10018;51.230;7.860;2023-02-28T16:33:31;10.07;;;5.50;;
19733;SDS011;10018;51.230;7.860;2023-02-28T16:35:57;12.50;;;5.63;;
19733;SDS011;10018;51.230;7.860;2023-02-28T16:38:23;17.13;;;8.23;;
19733;SDS011;10018;51.230;7.860;2023-02-28T16:40:50;14.60;;;7.03;;
19733;SDS011;10018;51.230;7.860;2023-02-28T16:43:17;40.20;;;20.80;;
19733;SDS011;10018;51.230;7.860;2023-02-28T16:45:47;16.13;;;9.43;;
19733;SDS011;10018;51.230;7.860;2023-02-28T16:48:13;14.97;;;9.10;;
19733;SDS011;10018;51.230;7.860;2023-02-28T16:50:40;11.20;;;7.43;;
19733;SDS011;10018;51.230;7.860;2023-02-28T16:53:09;11.03;;;6.20;;
19733;SDS011;10018;51.230;7.860;2023-02-28T16:55:35;13.07;;;8.90;;
19733;SDS011;10018;51.230;7.860;2023-02-28T16:58:03;10.73;;;6.93;;
19733;SDS011;10018;51.230;7.860;2023-02-28T17:00:31;11.07;;;6.33;;
19733;SDS011;10018;51.230;7.860;2023-02-28T17:02:58;11.20;;;6.80;;
19733;SDS011;10018;51.230;7.860;2023-02-28T17:05:27;12.60;;;7.47;;
19733;SDS011;10018;51.230;7.860;2023-02-28T17:08:00;11.03;;;6.13;;
19733;SDS011;10018;51.230;7.860;2023-02-28T17:10:26;11.90;;;7.40;;
19733;SDS011;10018;51.230;7.860;2023-02-28T17:12:52;14.70;;;9.30;;
19733;SDS011;10018;51.230;7.860;2023-02-28T17:15:18;13.93;;;8.40;;
19733;SDS011;10018;51.230;7.860;2023-02-28T17:17:45;20.57;;;14.07;;
19733;SDS011;10018;51.230;7.860;2023-02-28T17:20:16;25.23;;;15.23;;
19733;SDS011;10018;51.230;7.860;2023-02-28T17:22:47;17.53;;;11.03;;
19733;SDS011;10018;51.230;7.860;2023-02-28T17:25:13;30.60;;;16.40;;